createdAt,value
2018-09-19T00:02:20.687Z,5.00
2018-09-19T00:04:48.346Z,4.70
2018-09-19T00:07:16.210Z,4.57
2018-09-19T00:09:43.923Z,4.63
2018-09-19T00:12:11.633Z,4.97
2018-09-19T00:14:39.293Z,4.77
2018-09-19T00:17:07.087Z,5.10
2018-09-19T00:19:34.827Z,4.80
2018-09-19T00:22:03.362Z,4.87
2018-09-19T00:24:31.420Z,4.63
2018-09-19T00:26:59.141Z,5.17
2018-09-19T00:29:26.946Z,4.90
2018-09-19T00:31:54.708Z,5.00
2018-09-19T00:34:22.558Z,4.73
2018-09-19T00:36:50.299Z,5.40
2018-09-19T00:39:18.059Z,5.00
2018-09-19T00:41:46.020Z,5.43
2018-09-19T00:44:13.720Z,5.10
2018-09-19T00:46:41.485Z,5.30
2018-09-19T00:49:09.180Z,5.00
2018-09-19T00:51:36.891Z,5.40
2018-09-19T00:54:04.762Z,5.97
2018-09-19T00:56:32.436Z,5.80
2018-09-19T00:59:00.205Z,5.80
2018-09-19T01:01:27.884Z,5.43
2018-09-19T01:03:55.623Z,5.37
2018-09-19T01:06:23.341Z,5.60
2018-09-19T01:08:51.019Z,5.60
2018-09-19T01:11:18.724Z,5.70
2018-09-19T01:13:46.514Z,5.87
2018-09-19T01:16:14.264Z,5.87
2018-09-19T01:18:41.971Z,5.50
2018-09-19T01:21:09.751Z,5.90
2018-09-19T01:23:37.476Z,6.00
2018-09-19T01:26:05.789Z,6.07
2018-09-19T01:28:35.383Z,6.07
2018-09-19T01:31:03.221Z,5.80
2018-09-19T01:33:30.951Z,5.60
2018-09-19T01:36:02.647Z,6.20
2018-09-19T01:38:30.370Z,5.20
2018-09-19T01:40:58.072Z,6.17
2018-09-19T01:43:25.754Z,5.83
2018-09-19T01:45:53.535Z,6.80
2018-09-19T01:48:21.620Z,6.07
2018-09-19T01:50:49.483Z,5.50
2018-09-19T01:53:17.172Z,6.23
2018-09-19T01:55:44.936Z,6.07
2018-09-19T01:58:12.635Z,7.13
2018-09-19T02:00:40.411Z,6.53
2018-09-19T02:03:08.202Z,6.03
2018-09-19T02:05:36.165Z,5.90
2018-09-19T02:08:03.999Z,6.10
2018-09-19T02:10:31.839Z,6.10
2018-09-19T02:12:59.666Z,5.20
2018-09-19T02:15:27.531Z,5.80
2018-09-19T02:17:55.324Z,5.77
2018-09-19T02:20:23.080Z,5.50
2018-09-19T02:22:50.815Z,5.97
2018-09-19T02:25:18.694Z,5.90
2018-09-19T02:27:46.664Z,6.30
2018-09-19T02:30:14.513Z,5.90
2018-09-19T02:32:42.301Z,5.67
2018-09-19T02:35:10.132Z,6.00
2018-09-19T02:37:37.879Z,5.27
2018-09-19T02:40:05.989Z,6.10
2018-09-19T02:42:33.891Z,5.57
2018-09-19T02:45:01.676Z,6.17
2018-09-19T02:47:29.435Z,5.57
2018-09-19T02:49:57.102Z,5.53
2018-09-19T02:52:24.787Z,6.23
2018-09-19T02:54:52.548Z,5.30
2018-09-19T02:57:20.340Z,5.90
2018-09-19T02:59:48.866Z,5.30
2018-09-19T03:02:16.723Z,6.57
2018-09-19T03:07:45.825Z,5.67
2018-09-19T03:10:13.543Z,6.10
2018-09-19T03:12:41.347Z,5.53
2018-09-19T03:15:09.128Z,5.57
2018-09-19T03:17:36.937Z,5.70
2018-09-19T03:20:04.579Z,5.27
2018-09-19T03:22:32.481Z,5.33
2018-09-19T03:25:00.468Z,6.30
2018-09-19T03:27:28.182Z,6.37
2018-09-19T03:29:55.931Z,7.07
2018-09-19T03:32:23.679Z,6.40
2018-09-19T03:34:51.435Z,6.23
2018-09-19T03:37:19.152Z,5.97
2018-09-19T03:39:46.850Z,6.13
2018-09-19T03:42:14.648Z,6.70
2018-09-19T03:44:42.402Z,6.20
2018-09-19T03:47:10.087Z,6.23
2018-09-19T03:49:37.910Z,6.00
2018-09-19T03:52:05.610Z,6.50
2018-09-19T03:54:33.386Z,6.23
2018-09-19T03:57:01.399Z,6.83
2018-09-19T03:59:29.245Z,6.03
2018-09-19T04:01:57.068Z,6.43
2018-09-19T04:04:24.743Z,6.30
2018-09-19T04:06:52.548Z,6.30
2018-09-19T04:09:20.310Z,7.03
2018-09-19T04:11:48.315Z,6.37
2018-09-19T04:14:16.113Z,6.87
2018-09-19T04:16:47.382Z,6.03
2018-09-19T04:19:15.135Z,6.00
2018-09-19T04:21:48.974Z,6.87
2018-09-19T04:24:16.759Z,6.77
2018-09-19T04:26:44.619Z,6.17
2018-09-19T04:29:12.535Z,6.00
2018-09-19T04:31:40.466Z,6.33
2018-09-19T04:34:08.153Z,6.63
2018-09-19T04:36:35.863Z,6.47
2018-09-19T04:39:06.298Z,6.40
2018-09-19T04:41:34.109Z,6.07
2018-09-19T04:44:01.855Z,6.17
2018-09-19T04:46:29.666Z,6.27
2018-09-19T04:48:57.420Z,6.43
2018-09-19T04:51:25.305Z,6.27
2018-09-19T04:53:52.995Z,7.60
2018-09-19T04:56:20.700Z,7.00
2018-09-19T04:58:48.410Z,7.07
2018-09-19T05:01:16.126Z,6.70
2018-09-19T05:03:43.862Z,6.53
2018-09-19T05:06:11.598Z,6.77
2018-09-19T05:08:39.330Z,6.87
2018-09-19T05:11:07.035Z,7.27
2018-09-19T05:13:34.723Z,6.73
2018-09-19T05:16:02.649Z,7.17
2018-09-19T05:18:30.372Z,6.73
2018-09-19T05:20:58.070Z,7.10
2018-09-19T05:23:27.496Z,7.10
2018-09-19T05:25:55.510Z,6.90
2018-09-19T05:28:23.188Z,6.60
2018-09-19T05:30:51.224Z,6.93
2018-09-19T05:33:18.903Z,6.53
2018-09-19T05:35:46.621Z,6.57
2018-09-19T05:38:14.479Z,7.33
2018-09-19T05:40:42.245Z,7.03
2018-09-19T05:43:09.964Z,6.93
2018-09-19T05:45:41.424Z,7.07
2018-09-19T05:48:09.134Z,6.47
2018-09-19T05:50:37.140Z,6.73
2018-09-19T05:53:04.956Z,6.10
2018-09-19T05:55:32.620Z,6.50
2018-09-19T05:58:00.351Z,6.70
2018-09-19T06:00:28.069Z,5.80
2018-09-19T06:02:55.829Z,6.23
2018-09-19T06:05:23.642Z,6.60
2018-09-19T06:07:51.575Z,6.50
2018-09-19T06:10:19.254Z,6.83
2018-09-19T06:12:46.986Z,6.47
2018-09-19T06:15:14.679Z,6.53
2018-09-19T06:17:42.413Z,6.70
2018-09-19T06:20:10.128Z,6.77
2018-09-19T06:22:37.926Z,6.40
2018-09-19T06:25:06.005Z,6.30
2018-09-19T06:27:33.643Z,5.70
2018-09-19T06:30:01.418Z,6.80
2018-09-19T06:32:29.159Z,6.20
2018-09-19T06:34:56.946Z,6.43
2018-09-19T06:37:24.674Z,6.37
2018-09-19T06:39:52.538Z,6.07
2018-09-19T06:42:20.210Z,6.03
2018-09-19T06:44:47.936Z,5.87
2018-09-19T06:47:15.622Z,6.10
2018-09-19T06:49:43.334Z,5.90
2018-09-19T06:52:11.115Z,5.73
2018-09-19T06:54:38.798Z,6.20
2018-09-19T06:57:06.542Z,6.30
2018-09-19T06:59:34.350Z,5.10
2018-09-19T07:02:02.119Z,6.10
2018-09-19T07:04:33.715Z,5.50
2018-09-19T07:07:01.514Z,5.40
2018-09-19T07:09:29.169Z,5.73
2018-09-19T07:11:56.856Z,5.63
2018-09-19T07:14:24.595Z,5.60
2018-09-19T07:16:52.274Z,4.97
2018-09-19T07:19:20.311Z,5.70
2018-09-19T07:21:48.019Z,5.60
2018-09-19T07:24:15.702Z,5.03
2018-09-19T07:26:43.511Z,5.13
2018-09-19T07:29:11.228Z,5.30
2018-09-19T07:31:39.033Z,4.97
2018-09-19T07:34:07.206Z,5.00
2018-09-19T07:36:35.168Z,4.70
2018-09-19T07:39:03.851Z,4.67
2018-09-19T07:41:31.528Z,4.80
2018-09-19T07:43:59.489Z,4.37
2018-09-19T07:46:27.271Z,4.30
2018-09-19T07:48:54.978Z,4.90
2018-09-19T07:51:22.711Z,4.53
2018-09-19T07:53:51.166Z,4.80
2018-09-19T07:56:19.046Z,4.60
2018-09-19T07:58:46.811Z,4.23
2018-09-19T08:01:14.559Z,4.80
2018-09-19T08:03:42.350Z,4.17
2018-09-19T08:06:10.136Z,4.63
2018-09-19T08:08:37.883Z,4.97
2018-09-19T08:11:05.622Z,4.47
2018-09-19T08:13:33.426Z,4.63
2018-09-19T08:16:01.171Z,4.33
2018-09-19T08:18:28.892Z,4.20
2018-09-19T08:20:56.660Z,3.90
2018-09-19T08:23:24.424Z,4.30
2018-09-19T08:25:52.520Z,4.63
2018-09-19T08:28:20.299Z,4.67
2018-09-19T08:30:48.177Z,4.13
2018-09-19T08:33:15.874Z,4.47
2018-09-19T08:35:43.604Z,4.17
2018-09-19T08:38:15.233Z,4.57
2018-09-19T08:40:43.000Z,4.57
2018-09-19T08:43:10.691Z,4.10
2018-09-19T08:45:38.416Z,4.23
2018-09-19T08:48:06.187Z,4.17
2018-09-19T08:50:33.998Z,4.20
2018-09-19T08:53:02.384Z,4.40
2018-09-19T08:55:30.479Z,4.10
2018-09-19T08:57:58.559Z,4.07
2018-09-19T09:00:26.343Z,4.07
2018-09-19T09:02:54.032Z,4.17
2018-09-19T09:05:22.079Z,3.30
2018-09-19T09:07:49.760Z,3.50
2018-09-19T09:10:17.513Z,3.03
2018-09-19T09:12:45.263Z,3.77
2018-09-19T09:15:12.946Z,3.60
2018-09-19T09:17:40.686Z,4.47
2018-09-19T09:20:08.456Z,4.20
2018-09-19T09:22:36.170Z,4.50
2018-09-19T09:25:03.949Z,4.40
2018-09-19T09:27:32.109Z,3.80
2018-09-19T09:29:59.615Z,3.60
2018-09-19T09:32:27.315Z,3.60
2018-09-19T09:34:55.060Z,3.93
2018-09-19T09:37:22.827Z,4.27
2018-09-19T09:39:50.524Z,3.53
2018-09-19T09:42:18.373Z,3.93
2018-09-19T09:44:46.199Z,3.57
2018-09-19T09:47:13.884Z,3.33
2018-09-19T09:49:41.729Z,3.33
2018-09-19T09:52:09.621Z,3.53
2018-09-19T09:54:37.299Z,3.30
2018-09-19T09:57:05.819Z,3.47
2018-09-19T09:59:33.879Z,3.90
2018-09-19T10:02:01.762Z,3.63
2018-09-19T10:04:29.474Z,3.40
2018-09-19T10:06:57.226Z,3.10
2018-09-19T10:09:25.103Z,3.57
2018-09-19T10:11:53.526Z,3.53
2018-09-19T10:14:21.513Z,2.90
2018-09-19T10:16:49.263Z,3.07
2018-09-19T10:19:17.032Z,2.80
2018-09-19T10:21:44.806Z,2.97
2018-09-19T10:24:12.518Z,3.20
2018-09-19T10:26:40.214Z,3.10
2018-09-19T10:29:08.031Z,2.90
2018-09-19T10:31:35.851Z,2.87
2018-09-19T10:34:03.628Z,3.40
2018-09-19T10:36:35.275Z,3.13
2018-09-19T10:39:04.060Z,3.00
2018-09-19T10:41:31.845Z,3.30
2018-09-19T10:43:59.577Z,3.27
2018-09-19T10:46:27.257Z,2.93
2018-09-19T10:48:55.008Z,3.63
2018-09-19T10:51:23.058Z,3.13
2018-09-19T10:53:50.806Z,3.23
2018-09-19T10:56:18.584Z,3.10
2018-09-19T10:58:46.403Z,3.30
2018-09-19T11:01:14.102Z,2.97
2018-09-19T11:03:41.990Z,3.33
2018-09-19T11:06:09.950Z,3.27
2018-09-19T11:08:37.705Z,3.43
2018-09-19T11:11:05.869Z,3.37
2018-09-19T11:13:33.649Z,3.30
2018-09-19T11:16:01.326Z,3.00
2018-09-19T11:18:29.039Z,2.90
2018-09-19T11:20:56.875Z,3.27
2018-09-19T11:23:24.610Z,3.13
2018-09-19T11:25:52.347Z,3.20
2018-09-19T11:28:20.132Z,3.43
2018-09-19T11:30:47.871Z,3.70
2018-09-19T11:33:15.659Z,3.00
2018-09-19T11:35:43.432Z,3.50
2018-09-19T11:38:11.339Z,3.60
2018-09-19T11:40:39.341Z,3.10
2018-09-19T11:43:07.174Z,3.30
2018-09-19T11:45:34.942Z,3.17
2018-09-19T11:48:02.824Z,3.20
2018-09-19T11:50:30.625Z,3.43
2018-09-19T11:52:58.318Z,3.23
2018-09-19T11:55:26.359Z,4.17
2018-09-19T11:57:54.671Z,3.00
2018-09-19T12:00:22.498Z,2.87
2018-09-19T12:02:50.473Z,3.10
2018-09-19T12:05:18.207Z,2.90
2018-09-19T12:07:45.894Z,3.17
2018-09-19T12:10:14.061Z,3.00
2018-09-19T12:12:45.416Z,2.90
2018-09-19T12:15:13.155Z,3.20
2018-09-19T12:17:40.927Z,3.03
2018-09-19T12:20:08.662Z,3.33
2018-09-19T12:22:36.440Z,3.10
2018-09-19T12:25:04.183Z,3.03
2018-09-19T12:27:31.972Z,3.03
2018-09-19T12:29:59.703Z,3.30
2018-09-19T12:32:27.424Z,3.33
2018-09-19T12:34:55.253Z,2.70
2018-09-19T12:37:22.932Z,2.90
2018-09-19T12:39:50.659Z,3.07
2018-09-19T12:42:18.397Z,3.20
2018-09-19T12:44:46.278Z,3.20
2018-09-19T12:47:14.128Z,3.05
2018-09-19T12:49:41.858Z,3.30
2018-09-19T12:52:09.710Z,3.05
2018-09-19T12:54:37.547Z,6.30
2018-09-19T12:57:05.391Z,3.58
2018-09-19T12:59:33.122Z,3.00
2018-09-19T13:02:00.823Z,3.70
2018-09-19T13:04:28.619Z,3.13
2018-09-19T13:06:56.381Z,3.70
2018-09-19T13:09:24.501Z,3.30
2018-09-19T13:11:52.334Z,3.00
2018-09-19T13:14:20.091Z,2.97
2018-09-19T13:16:47.866Z,3.40
2018-09-19T13:19:15.585Z,2.43
2018-09-19T13:21:43.310Z,2.90
2018-09-19T13:24:11.048Z,3.03
2018-09-19T13:26:38.785Z,2.57
2018-09-19T13:29:10.296Z,2.80
2018-09-19T13:31:38.020Z,2.67
2018-09-19T13:34:05.890Z,2.70
2018-09-19T13:36:33.612Z,3.00
2018-09-19T13:39:01.698Z,2.90
2018-09-19T13:41:29.447Z,2.87
2018-09-19T13:43:57.326Z,3.07
2018-09-19T13:46:25.503Z,3.13
2018-09-19T13:49:00.179Z,3.07
2018-09-19T13:51:27.909Z,2.63
2018-09-19T13:53:55.968Z,2.63
2018-09-19T13:56:23.836Z,2.50
2018-09-19T13:58:51.822Z,2.87
2018-09-19T14:01:19.719Z,3.50
2018-09-19T14:03:47.588Z,2.80
2018-09-19T14:06:15.442Z,2.70
2018-09-19T14:08:43.295Z,3.20
2018-09-19T14:11:11.032Z,2.90
2018-09-19T14:13:38.721Z,2.60
2018-09-19T14:16:07.342Z,2.97
2018-09-19T14:18:35.032Z,2.60
2018-09-19T14:21:02.795Z,2.93
2018-09-19T14:23:30.627Z,2.90
2018-09-19T14:25:58.474Z,2.70
2018-09-19T14:28:26.204Z,2.50
2018-09-19T14:30:57.969Z,2.63
2018-09-19T14:33:25.772Z,2.90
2018-09-19T14:35:54.043Z,2.57
2018-09-19T14:38:21.771Z,3.13
2018-09-19T14:40:49.476Z,2.90
2018-09-19T14:43:17.376Z,2.77
2018-09-19T14:45:45.254Z,2.80
2018-09-19T14:48:12.980Z,2.67
2018-09-19T14:50:40.775Z,3.00
2018-09-19T14:53:08.919Z,3.13
2018-09-19T14:55:36.738Z,3.10
2018-09-19T14:58:04.618Z,2.87
2018-09-19T15:00:32.383Z,2.87
2018-09-19T15:03:00.308Z,3.07
2018-09-19T15:05:28.328Z,2.67
2018-09-19T15:07:56.490Z,3.00
2018-09-19T15:10:24.226Z,2.60
2018-09-19T15:12:51.947Z,2.43
2018-09-19T15:15:19.711Z,2.80
2018-09-19T15:17:47.468Z,2.63
2018-09-19T15:20:15.167Z,2.80
2018-09-19T15:22:43.009Z,3.03
2018-09-19T15:25:10.765Z,3.17
2018-09-19T15:27:38.472Z,2.43
2018-09-19T15:30:06.230Z,2.90
2018-09-19T15:32:33.986Z,2.93
2018-09-19T15:35:01.825Z,2.80
2018-09-19T15:37:29.583Z,3.23
2018-09-19T15:39:57.515Z,2.77
2018-09-19T15:42:25.352Z,3.10
2018-09-19T15:44:53.259Z,3.00
2018-09-19T15:47:21.074Z,3.40
2018-09-19T15:49:52.415Z,3.10
2018-09-19T15:52:20.150Z,3.10
2018-09-19T15:54:47.987Z,3.50
2018-09-19T15:57:15.743Z,3.30
2018-09-19T15:59:43.497Z,3.63
2018-09-19T16:02:11.217Z,3.40
2018-09-19T16:04:39.023Z,2.93
2018-09-19T16:07:06.872Z,3.10
2018-09-19T16:09:34.783Z,3.10
2018-09-19T16:12:02.664Z,2.80
2018-09-19T16:14:30.455Z,3.03
2018-09-19T16:16:58.154Z,2.97
2018-09-19T16:19:25.868Z,3.20
2018-09-19T16:21:53.596Z,3.27
2018-09-19T16:24:21.315Z,3.20
2018-09-19T16:26:49.536Z,5.10
2018-09-19T16:29:17.327Z,4.37
2018-09-19T16:31:45.168Z,3.77
2018-09-19T16:34:13.040Z,3.57
2018-09-19T16:36:40.965Z,3.27
2018-09-19T16:39:10.638Z,3.30
2018-09-19T16:41:38.516Z,2.70
2018-09-19T16:44:06.889Z,2.80
2018-09-19T16:46:35.387Z,3.00
2018-09-19T16:49:03.459Z,3.13
2018-09-19T16:51:31.623Z,3.43
2018-09-19T16:54:00.287Z,2.73
2018-09-19T16:56:28.002Z,3.13
2018-09-19T16:58:55.847Z,3.07
2018-09-19T17:01:23.592Z,3.00
2018-09-19T17:03:51.316Z,3.90
2018-09-19T17:06:19.312Z,3.83
2018-09-19T17:08:47.071Z,3.70
2018-09-19T17:11:15.078Z,3.13
2018-09-19T17:13:42.783Z,3.10
2018-09-19T17:16:13.973Z,2.80
2018-09-19T17:18:41.950Z,3.43
2018-09-19T17:21:09.699Z,3.00
2018-09-19T17:23:37.529Z,3.03
2018-09-19T17:26:05.727Z,3.90
2018-09-19T17:28:33.588Z,4.70
2018-09-19T17:31:01.367Z,5.70
2018-09-19T17:33:29.200Z,5.30
2018-09-19T17:35:57.883Z,4.60
2018-09-19T17:38:25.775Z,4.30
2018-09-19T17:40:53.577Z,4.30
2018-09-19T17:43:21.335Z,3.90
2018-09-19T17:45:50.011Z,4.73
2018-09-19T17:48:18.080Z,5.30
2018-09-19T17:50:45.913Z,4.20
2018-09-19T17:53:13.726Z,4.53
2018-09-19T17:55:41.502Z,4.20
2018-09-19T17:58:09.449Z,3.73
2018-09-19T18:00:37.510Z,3.70
2018-09-19T18:03:05.387Z,3.90
2018-09-19T18:05:33.176Z,3.50
2018-09-19T18:08:01.228Z,3.80
2018-09-19T18:10:29.370Z,3.77
2018-09-19T18:12:57.194Z,3.73
2018-09-19T18:15:25.143Z,3.63
2018-09-19T18:17:53.385Z,3.63
2018-09-19T18:20:21.331Z,3.73
2018-09-19T18:22:49.160Z,4.13
2018-09-19T18:25:17.490Z,3.87
2018-09-19T18:27:45.251Z,3.90
2018-09-19T18:30:13.215Z,4.93
2018-09-19T18:32:41.104Z,4.20
2018-09-19T18:35:08.903Z,4.37
2018-09-19T18:37:36.669Z,4.27
2018-09-19T18:40:04.526Z,3.93
2018-09-19T18:42:32.222Z,4.20
2018-09-19T18:45:00.727Z,4.57
2018-09-19T18:47:28.704Z,4.57
2018-09-19T18:49:56.700Z,4.13
2018-09-19T18:52:24.427Z,4.20
2018-09-19T18:54:52.230Z,4.13
2018-09-19T18:57:20.003Z,4.30
2018-09-19T18:59:47.717Z,4.60
2018-09-19T19:02:15.447Z,4.80
2018-09-19T19:04:43.269Z,4.83
2018-09-19T19:07:10.975Z,4.67
2018-09-19T19:12:13.459Z,4.93
2018-09-19T19:14:41.191Z,4.23
2018-09-19T19:17:09.047Z,4.27
2018-09-19T19:19:37.002Z,4.70
2018-09-19T19:22:04.764Z,4.50
2018-09-19T19:24:34.129Z,4.70
2018-09-19T19:27:01.862Z,3.90
2018-09-19T19:29:29.615Z,4.40
2018-09-19T19:31:57.667Z,4.40
2018-09-19T19:34:25.503Z,4.60
2018-09-19T19:36:53.502Z,4.63
2018-09-19T19:39:21.244Z,4.77
2018-09-19T19:41:48.948Z,4.60
2018-09-19T19:44:16.900Z,4.77
2018-09-19T19:46:44.711Z,4.90
2018-09-19T19:49:12.401Z,5.07
2018-09-19T19:51:40.246Z,4.80
2018-09-19T19:54:08.247Z,4.70
2018-09-19T19:56:36.228Z,4.77
2018-09-19T19:59:04.522Z,4.77
2018-09-19T20:01:32.414Z,5.03
2018-09-19T20:04:00.187Z,5.20
2018-09-19T20:06:27.891Z,4.63
2018-09-19T20:08:55.966Z,4.40
2018-09-19T20:11:23.740Z,4.40
2018-09-19T20:13:51.499Z,5.07
2018-09-19T20:16:19.558Z,5.17
2018-09-19T20:18:47.276Z,4.53
2018-09-19T20:21:15.067Z,5.10
2018-09-19T20:23:42.882Z,4.73
2018-09-19T20:26:10.611Z,4.50
2018-09-19T20:28:38.395Z,4.57
2018-09-19T20:31:06.151Z,5.00
2018-09-19T20:33:33.831Z,5.47
2018-09-19T20:36:01.771Z,5.07
2018-09-19T20:38:29.466Z,5.00
2018-09-19T20:40:57.183Z,5.40
2018-09-19T20:43:24.971Z,5.20
2018-09-19T20:45:52.758Z,5.23
2018-09-19T20:48:20.581Z,5.93
2018-09-19T20:50:48.271Z,5.30
2018-09-19T20:53:16.163Z,5.00
2018-09-19T20:55:43.869Z,5.23
2018-09-19T20:58:11.654Z,4.23
2018-09-19T21:00:39.511Z,5.20
2018-09-19T21:03:07.371Z,5.17
2018-09-19T21:05:35.174Z,4.73
2018-09-19T21:08:02.925Z,5.60
2018-09-19T21:10:30.768Z,5.53
2018-09-19T21:12:58.544Z,5.13
2018-09-19T21:15:26.395Z,5.03
2018-09-19T21:17:54.107Z,5.23
2018-09-19T21:20:21.890Z,4.80
2018-09-19T21:22:49.843Z,5.43
2018-09-19T21:25:17.741Z,5.13
2018-09-19T21:27:45.455Z,5.40
2018-09-19T21:30:13.203Z,5.20
2018-09-19T21:32:40.888Z,5.20
2018-09-19T21:35:08.627Z,4.97
2018-09-19T21:37:36.334Z,5.03
2018-09-19T21:40:04.115Z,5.47
2018-09-19T21:42:31.858Z,5.43
2018-09-19T21:44:59.598Z,5.50
2018-09-19T21:47:27.255Z,5.67
2018-09-19T21:49:54.993Z,5.90
2018-09-19T21:52:22.663Z,5.37
2018-09-19T21:54:50.398Z,5.93
2018-09-19T21:57:18.159Z,6.00
2018-09-19T21:59:45.903Z,5.57
2018-09-19T22:02:16.203Z,5.47
2018-09-19T22:04:45.069Z,5.80
2018-09-19T22:07:12.971Z,5.63
2018-09-19T22:09:40.816Z,6.27
2018-09-19T22:12:09.498Z,5.73
2018-09-19T22:14:38.859Z,5.70
2018-09-19T22:17:06.867Z,5.60
2018-09-19T22:19:34.611Z,5.00
2018-09-19T22:22:02.636Z,5.53
2018-09-19T22:24:30.342Z,5.77
2018-09-19T22:26:58.091Z,5.97
2018-09-19T22:29:25.899Z,5.30
2018-09-19T22:31:53.620Z,5.50
2018-09-19T22:34:21.371Z,5.63
2018-09-19T22:36:49.156Z,6.03
2018-09-19T22:39:16.867Z,5.60
2018-09-19T22:41:44.610Z,5.97
2018-09-19T22:44:12.318Z,6.10
2018-09-19T22:46:40.090Z,6.33
2018-09-19T22:49:07.893Z,6.17
2018-09-19T22:51:35.589Z,5.97
2018-09-19T22:54:03.373Z,5.83
2018-09-19T22:56:31.098Z,6.70
2018-09-19T22:58:58.824Z,6.27
2018-09-19T23:01:26.731Z,6.43
2018-09-19T23:03:54.412Z,6.43
2018-09-19T23:06:22.105Z,6.60
2018-09-19T23:08:49.805Z,6.10
2018-09-19T23:11:17.592Z,6.87
2018-09-19T23:13:45.271Z,6.90
2018-09-19T23:16:13.336Z,6.30
2018-09-19T23:18:41.099Z,6.37
2018-09-19T23:21:08.819Z,6.07
2018-09-19T23:23:39.799Z,6.80
2018-09-19T23:26:07.523Z,6.53
2018-09-19T23:28:35.223Z,6.40
2018-09-19T23:31:02.931Z,7.00
2018-09-19T23:33:30.628Z,6.77
2018-09-19T23:35:58.355Z,6.87
2018-09-19T23:38:26.139Z,6.87
2018-09-19T23:40:53.849Z,6.60
2018-09-19T23:43:21.603Z,6.93
2018-09-19T23:45:49.567Z,6.33
2018-09-19T23:48:17.323Z,6.63
2018-09-19T23:50:45.027Z,6.50
2018-09-19T23:53:12.762Z,6.57
2018-09-19T23:55:40.451Z,6.17
2018-09-19T23:58:08.476Z,7.13
